Time;durP1;ratioP1;P1;durP2;ratioP2;P2;SDS_P1;SDS_P2;PMS_P1;PMS_P2;Temp;Humidity;BMP_temperature;BMP_pressure;BME280_temperature;BME280_humidity;BME280_pressure;Samples;Min_cycle;Max_cycle;Signal;HPM_P1;HPM_P2
2023/08/13 00:00:32;;;;;;;0.82;0.80;;;20.40;99.90;;;;;;5053537;28;20211;-70
2023/08/13 00:03:00;;;;;;;1.42;1.10;;;20.40;99.90;;;;;;5053096;28;20201;-70
2023/08/13 00:05:30;;;;;;;0.93;0.80;;;20.40;99.90;;;;;;5052980;28;20745;-70
2023/08/13 00:07:58;;;;;;;1.10;1.00;;;20.40;99.90;;;;;;5053140;28;20221;-68
2023/08/13 00:10:26;;;;;;;;;;;20.30;99.90;;;;;;5053397;28;19948;-70
2023/08/13 00:12:54;;;;;;;;;;;20.30;99.90;;;;;;5053455;28;19960;-70
2023/08/13 00:15:21;;;;;;;;;;;20.20;99.90;;;;;;5039076;28;19925;-70
2023/08/13 00:17:49;;;;;;;2.58;1.05;;;20.20;99.90;;;;;;5042505;28;20045;-70
2023/08/13 00:20:17;;;;;;;0.98;0.88;;;20.20;99.90;;;;;;5052838;28;20246;-70
2023/08/13 00:22:47;;;;;;;0.73;0.70;;;20.10;99.90;;;;;;5052773;28;20199;-70
2023/08/13 00:25:15;;;;;;;0.80;0.80;;;20.20;99.90;;;;;;5080861;22;20203;-70
2023/08/13 00:27:43;;;;;;;0.80;0.73;;;20.10;99.90;;;;;;5092751;28;20203;-70
2023/08/13 00:30:12;;;;;;;1.00;0.90;;;20.10;99.90;;;;;;5092496;28;20248;-70
2023/08/13 00:32:40;;;;;;;0.88;0.85;;;20.00;99.90;;;;;;5093438;28;20217;-69
2023/08/13 00:35:09;;;;;;;1.00;0.90;;;20.10;99.90;;;;;;5093272;28;20202;-70
2023/08/13 00:37:37;;;;;;;1.30;1.00;;;20.00;99.90;;;;;;5093267;28;20595;-70
2023/08/13 00:40:09;;;;;;;1.25;1.02;;;20.00;99.90;;;;;;5076511;28;20191;-70
2023/08/13 00:42:37;;;;;;;1.15;0.90;;;20.00;99.90;;;;;;5093292;28;20221;-70
2023/08/13 00:45:06;;;;;;;0.80;0.80;;;20.00;99.90;;;;;;5091343;28;20206;-70
2023/08/13 00:47:35;;;;;;;0.70;0.70;;;20.00;99.90;;;;;;5092724;28;20207;-70
2023/08/13 00:50:05;;;;;;;1.23;1.13;;;19.90;99.90;;;;;;5092683;28;20209;-70
2023/08/13 00:52:33;;;;;;;1.25;1.13;;;19.90;99.90;;;;;;5092930;28;20202;-70
2023/08/13 00:55:02;;;;;;;1.67;1.58;;;19.90;99.90;;;;;;5092640;28;20198;-70
2023/08/13 00:57:32;;;;;;;0.85;0.85;;;19.90;99.90;;;;;;5092691;28;20206;-70
2023/08/13 01:00:00;;;;;;;1.35;1.25;;;19.90;99.90;;;;;;5092535;28;20210;-70
2023/08/13 01:02:28;;;;;;;0.82;0.82;;;19.80;99.90;;;;;;5093402;28;20275;-70
2023/08/13 01:04:56;;;;;;;1.08;1.00;;;19.80;99.90;;;;;;5092608;28;20285;-69
2023/08/13 01:07:31;;;;;;;0.82;0.82;;;19.70;99.90;;;;;;5092853;28;20222;-70
2023/08/13 01:10:11;;;;;;;1.15;1.05;;;19.80;99.90;;;;;;5092248;28;20225;-70
2023/08/13 01:12:46;;;;;;;1.27;1.17;;;19.60;99.90;;;;;;5092564;28;20282;-70
2023/08/13 01:15:17;;;;;;;1.42;1.33;;;19.60;99.90;;;;;;5078862;28;20205;-70
2023/08/13 01:17:48;;;;;;;1.23;1.13;;;19.60;99.90;;;;;;5092167;28;20207;-69
2023/08/13 01:20:18;;;;;;;0.90;0.82;;;19.60;99.90;;;;;;5092116;28;20293;-70
2023/08/13 01:22:49;;;;;;;0.95;0.75;;;19.60;99.90;;;;;;5092285;28;20294;-70
2023/08/13 01:25:18;;;;;;;1.00;1.00;;;19.60;99.90;;;;;;5092101;28;20222;-70
2023/08/13 01:27:55;;;;;;;0.90;0.90;;;19.50;99.90;;;;;;5090529;28;20207;-69
2023/08/13 01:30:26;;;;;;;1.00;0.90;;;19.40;99.90;;;;;;5091911;28;20207;-70
2023/08/13 01:32:58;;;;;;;1.10;0.88;;;19.40;99.90;;;;;;5091746;28;20218;-69
2023/08/13 01:35:27;;;;;;;1.30;0.98;;;19.30;99.90;;;;;;5091840;28;20642;-69
2023/08/13 01:37:59;;;;;;;0.98;0.88;;;19.30;99.90;;;;;;5091297;28;20669;-70
2023/08/13 01:40:27;;;;;;;0.85;0.80;;;19.20;99.90;;;;;;5091608;28;20226;-70
2023/08/13 01:42:56;;;;;;;1.10;1.00;;;19.20;99.90;;;;;;5091435;28;20213;-69
2023/08/13 01:45:24;;;;;;;1.13;1.02;;;19.10;99.90;;;;;;5089137;28;20226;-70
2023/08/13 01:47:52;;;;;;;1.00;0.90;;;19.10;99.90;;;;;;5090885;28;20282;-69
2023/08/13 01:50:21;;;;;;;1.05;1.00;;;19.10;99.90;;;;;;5091631;28;20195;-70
2023/08/13 01:52:49;;;;;;;6.50;0.95;;;19.10;99.90;;;;;;5091732;28;20198;-70
2023/08/13 01:55:19;;;;;;;0.93;0.77;;;19.10;99.90;;;;;;5091324;28;20229;-70
2023/08/13 01:57:47;;;;;;;0.90;0.90;;;19.00;99.90;;;;;;5091166;28;20632;-70
2023/08/13 02:00:15;;;;;;;2.17;0.88;;;19.00;99.90;;;;;;5091273;28;20206;-70
2023/08/13 02:02:43;;;;;;;0.90;0.85;;;19.00;99.90;;;;;;5091449;28;20260;-69
2023/08/13 02:05:11;;;;;;;1.00;0.90;;;19.00;99.90;;;;;;5090982;28;20194;-70
2023/08/13 02:07:39;;;;;;;0.80;0.80;;;18.90;99.90;;;;;;5091439;28;20680;-69
2023/08/13 02:10:07;;;;;;;2.28;0.75;;;18.90;99.90;;;;;;5090890;28;20672;-70
2023/08/13 02:12:37;;;;;;;1.02;0.90;;;18.80;99.90;;;;;;5091266;28;20281;-70
2023/08/13 02:15:06;;;;;;;0.80;0.80;;;18.90;99.90;;;;;;5088170;28;20267;-69
2023/08/13 02:17:34;;;;;;;1.00;0.90;;;18.90;99.90;;;;;;5090758;28;20285;-70
2023/08/13 02:20:02;;;;;;;1.05;0.85;;;18.80;99.90;;;;;;5090608;28;20213;-70
2023/08/13 02:22:30;;;;;;;0.98;0.90;;;18.80;99.90;;;;;;5091259;28;20206;-69
2023/08/13 02:24:58;;;;;;;0.90;0.90;;;18.80;99.90;;;;;;5090652;28;20194;-69
2023/08/13 02:27:26;;;;;;;1.33;0.90;;;18.80;99.90;;;;;;5090931;28;20206;-70
2023/08/13 02:29:55;;;;;;;0.80;0.80;;;18.80;99.90;;;;;;5090587;28;20680;-71
2023/08/13 02:32:23;;;;;;;1.25;1.13;;;18.80;99.90;;;;;;5090927;28;20209;-70
2023/08/13 02:34:51;;;;;;;1.00;0.80;;;18.80;99.90;;;;;;5090536;28;20703;-70
2023/08/13 02:37:20;;;;;;;0.80;0.77;;;18.80;99.90;;;;;;5090995;28;20612;-70
2023/08/13 02:39:47;;;;;;;1.35;1.25;;;18.70;99.90;;;;;;5090662;28;20676;-70
2023/08/13 02:42:15;;;;;;;0.90;0.90;;;18.80;99.90;;;;;;5091253;28;20211;-70
2023/08/13 02:44:44;;;;;;;0.70;0.70;;;18.80;99.90;;;;;;5087660;28;20263;-70
2023/08/13 02:47:13;;;;;;;1.10;1.00;;;18.80;99.90;;;;;;5090757;28;20232;-70
2023/08/13 02:49:41;;;;;;;1.05;0.90;;;18.70;99.90;;;;;;5090630;28;20567;-70
2023/08/13 02:52:09;;;;;;;1.45;1.35;;;18.70;99.90;;;;;;5090522;28;20207;-70
2023/08/13 02:54:37;;;;;;;1.25;1.15;;;18.70;99.90;;;;;;5090708;28;20225;-70
2023/08/13 02:57:05;;;;;;;0.70;0.70;;;18.70;99.90;;;;;;5090390;28;20218;-70
2023/08/13 02:59:33;;;;;;;1.02;0.93;;;18.60;99.90;;;;;;5090509;28;20289;-70
2023/08/13 03:02:01;;;;;;;0.90;0.75;;;18.70;99.90;;;;;;5090550;28;20604;-70
2023/08/13 03:04:30;;;;;;;0.82;0.82;;;18.60;99.90;;;;;;5090723;28;20209;-70
2023/08/13 03:06:58;;;;;;;0.95;0.95;;;18.60;99.90;;;;;;5090448;28;20210;-70
2023/08/13 03:09:26;;;;;;;1.15;0.80;;;18.60;99.90;;;;;;5090496;28;20199;-70
2023/08/13 03:11:54;;;;;;;0.80;0.73;;;18.60;99.90;;;;;;5090337;28;20211;-70
2023/08/13 03:14:22;;;;;;;1.52;0.80;;;18.60;99.90;;;;;;5087480;28;20214;-70
2023/08/13 03:16:50;;;;;;;1.55;0.90;;;18.60;99.90;;;;;;5090263;28;20325;-70
2023/08/13 03:19:18;;;;;;;0.90;0.90;;;18.60;99.90;;;;;;5090159;28;20197;-70
2023/08/13 03:21:47;;;;;;;1.10;0.95;;;18.60;99.90;;;;;;5090432;28;20210;-70
2023/08/13 03:24:15;;;;;;;1.30;1.10;;;18.50;99.90;;;;;;5090074;28;20236;-70
2023/08/13 03:26:43;;;;;;;1.13;1.02;;;18.50;99.90;;;;;;5090058;28;20241;-70
2023/08/13 03:29:11;;;;;;;1.30;0.93;;;18.50;99.90;;;;;;5089920;28;20206;-70
2023/08/13 03:31:39;;;;;;;0.80;0.80;;;18.50;99.90;;;;;;5092939;28;20194;-70
2023/08/13 03:34:07;;;;;;;1.30;1.15;;;18.50;99.90;;;;;;5093757;28;20259;-70
2023/08/13 03:36:35;;;;;;;0.90;0.90;;;18.40;99.90;;;;;;5093857;28;20237;-70
2023/08/13 03:39:05;;;;;;;1.40;0.95;;;18.30;99.90;;;;;;5093320;28;20206;-70
2023/08/13 03:41:33;;;;;;;1.10;1.00;;;18.30;99.90;;;;;;5093882;28;20664;-70
2023/08/13 03:44:01;;;;;;;1.25;0.90;;;18.30;99.90;;;;;;5089900;28;20222;-70
2023/08/13 03:46:28;;;;;;;1.17;1.00;;;18.30;99.90;;;;;;5093626;28;20223;-70
2023/08/13 03:48:56;;;;;;;1.20;1.10;;;18.30;99.90;;;;;;5093497;28;20210;-70
2023/08/13 03:51:24;;;;;;;0.80;0.80;;;18.30;99.90;;;;;;5077615;28;20229;-70
2023/08/13 03:53:52;;;;;;;0.85;0.80;;;18.20;99.90;;;;;;5093669;28;20255;-70
2023/08/13 03:56:23;;;;;;;0.95;0.85;;;18.20;99.90;;;;;;5093354;28;20219;-70
2023/08/13 03:58:51;;;;;;;0.93;0.80;;;18.30;99.90;;;;;;5093080;28;20206;-70
2023/08/13 04:01:19;;;;;;;1.00;0.90;;;18.30;99.90;;;;;;5093315;28;20221;-70
2023/08/13 04:03:47;;;;;;;1.00;0.88;;;18.30;99.90;;;;;;5093362;28;20218;-70
2023/08/13 04:06:15;;;;;;;1.25;0.90;;;18.30;99.90;;;;;;5093088;28;20233;-70
2023/08/13 04:08:43;;;;;;;1.02;0.93;;;18.30;99.90;;;;;;5093066;28;20680;-70
2023/08/13 04:11:11;;;;;;;1.00;0.90;;;18.30;99.90;;;;;;5093308;28;20447;-70
2023/08/13 04:13:40;;;;;;;0.80;0.77;;;18.30;99.90;;;;;;5092411;28;20213;-70
2023/08/13 04:16:08;;;;;;;1.70;1.60;;;18.30;99.90;;;;;;5090420;28;20226;-70
2023/08/13 04:18:36;;;;;;;0.98;0.80;;;18.30;99.90;;;;;;5093152;28;20210;-70
2023/08/13 04:21:04;;;;;;;1.48;1.00;;;18.30;99.90;;;;;;5093140;28;20202;-70
2023/08/13 04:23:36;;;;;;;0.90;0.65;;;18.40;99.90;;;;;;5093298;28;20208;-70
2023/08/13 04:26:04;;;;;;;1.05;0.98;;;18.30;99.90;;;;;;5092684;28;20241;-70
2023/08/13 04:28:32;;;;;;;1.58;1.45;;;18.40;99.90;;;;;;5092718;28;20660;-70
2023/08/13 04:31:01;;;;;;;0.73;0.70;;;18.40;99.90;;;;;;5092965;28;20206;-70
2023/08/13 04:33:29;;;;;;;0.82;0.70;;;18.30;99.90;;;;;;5093091;28;20198;-70
2023/08/13 04:35:57;;;;;;;1.30;1.20;;;18.40;99.90;;;;;;5092649;28;20276;-70
2023/08/13 04:38:25;;;;;;;1.33;1.20;;;18.40;99.90;;;;;;5092216;28;20213;-70
2023/08/13 04:40:53;;;;;;;1.38;1.27;;;18.40;99.90;;;;;;5092476;28;20202;-70
2023/08/13 04:43:21;;;;;;;1.88;1.17;;;18.40;99.90;;;;;;5092353;28;20221;-71
2023/08/13 04:45:49;;;;;;;1.20;1.08;;;18.40;99.90;;;;;;5072250;28;20219;-70
2023/08/13 04:48:39;;;;;;;2.88;2.15;;;18.50;99.90;;;;;;5075037;28;20256;-70
2023/08/13 04:51:07;;;;;;;1.38;1.27;;;18.50;99.90;;;;;;5083458;28;20682;-70
2023/08/13 04:53:35;;;;;;;3.30;2.15;;;18.60;99.90;;;;;;5072226;28;20206;-70
2023/08/13 04:56:03;;;;;;;2.30;2.10;;;18.70;99.90;;;;;;5072080;28;20215;-70
2023/08/13 04:58:31;;;;;;;2.67;2.00;;;18.70;99.90;;;;;;5063813;28;20195;-70
2023/08/13 05:00:59;;;;;;;1.60;1.50;;;18.80;99.90;;;;;;5072363;28;20203;-70
2023/08/13 05:03:28;;;;;;;1.58;1.48;;;18.80;99.90;;;;;;5075002;28;20289;-70
2023/08/13 05:05:56;;;;;;;1.60;1.50;;;18.80;99.90;;;;;;5076486;28;20207;-70
2023/08/13 05:08:24;;;;;;;2.05;1.85;;;18.90;99.90;;;;;;5079825;28;20581;-69
2023/08/13 05:10:52;;;;;;;2.00;1.75;;;18.90;99.90;;;;;;5072037;28;20203;-71
2023/08/13 05:13:20;;;;;;;1.58;1.48;;;18.90;99.90;;;;;;5071756;28;20195;-70
2023/08/13 05:15:48;;;;;;;2.03;1.42;;;19.00;99.90;;;;;;5077594;28;20725;-70
2023/08/13 05:18:16;;;;;;;2.00;1.50;;;19.10;99.90;;;;;;5091487;28;20202;-70
2023/08/13 05:20:47;;;;;;;2.20;1.60;;;19.10;99.90;;;;;;5092141;28;20205;-70
2023/08/13 05:23:15;;;;;;;2.92;1.92;;;19.20;99.90;;;;;;5092046;28;20677;-70
2023/08/13 05:25:43;;;;;;;1.45;1.35;;;19.20;99.90;;;;;;5091982;28;20279;-70
2023/08/13 05:28:11;;;;;;;1.83;1.73;;;19.30;99.90;;;;;;5092157;28;20198;-70
2023/08/13 05:30:39;;;;;;;2.35;2.00;;;19.30;99.90;;;;;;5092022;28;20206;-70
2023/08/13 05:33:07;;;;;;;1.88;1.55;;;19.30;99.90;;;;;;5091643;28;20198;-69
2023/08/13 05:35:36;;;;;;;1.73;1.63;;;19.30;99.90;;;;;;5091735;28;20244;-70
2023/08/13 05:38:05;;;;;;;2.03;1.60;;;19.30;99.90;;;;;;5091690;28;20199;-70
2023/08/13 05:40:33;;;;;;;2.13;1.65;;;19.40;99.90;;;;;;5075001;28;20199;-70
2023/08/13 05:43:01;;;;;;;1.35;1.25;;;19.50;99.90;;;;;;5091773;28;20203;-70
2023/08/13 05:45:29;;;;;;;1.25;1.15;;;19.50;99.90;;;;;;5083311;28;20575;-70
2023/08/13 05:47:57;;;;;;;1.25;1.15;;;19.50;99.90;;;;;;5091606;28;20628;-69
2023/08/13 05:50:25;;;;;;;1.60;1.50;;;19.50;99.90;;;;;;5091413;28;20212;-70
2023/08/13 05:52:53;;;;;;;2.67;1.30;;;19.50;99.90;;;;;;5091392;28;20194;-70
2023/08/13 05:55:23;;;;;;;0.95;0.90;;;19.50;99.90;;;;;;5091423;28;20227;-70
2023/08/13 05:57:51;;;;;;;1.77;1.67;;;19.60;99.90;;;;;;5091533;28;20202;-70
2023/08/13 06:00:22;;;;;;;2.03;1.30;;;19.70;99.90;;;;;;5091244;28;20206;-70
2023/08/13 06:02:49;;;;;;;1.38;0.90;;;19.70;99.90;;;;;;5091696;28;20205;-71
2023/08/13 06:05:18;;;;;;;1.38;1.02;;;19.80;99.90;;;;;;5091581;28;20229;-70
2023/08/13 06:07:45;;;;;;;1.00;0.90;;;19.90;99.90;;;;;;5091604;28;20198;-70
2023/08/13 06:10:13;;;;;;;1.48;1.15;;;19.90;99.90;;;;;;5091003;28;20223;-70
2023/08/13 06:12:43;;;;;;;1.30;1.20;;;20.00;99.90;;;;;;5091780;28;20255;-70
2023/08/13 06:15:12;;;;;;;0.90;0.85;;;20.00;99.90;;;;;;5091215;28;20202;-70
2023/08/13 06:17:42;;;;;;;1.33;1.23;;;20.00;99.90;;;;;;5091765;28;20650;-70
2023/08/13 06:20:11;;;;;;;0.95;0.82;;;20.10;99.90;;;;;;5091187;28;20706;-70
2023/08/13 06:22:39;;;;;;;1.10;1.00;;;20.20;99.90;;;;;;5076151;28;20252;-70
2023/08/13 06:25:08;;;;;;;1.25;1.15;;;20.20;99.90;;;;;;5091356;28;20202;-70
2023/08/13 06:27:36;;;;;;;0.90;0.90;;;20.30;99.90;;;;;;5159661;22;20226;-70
2023/08/13 06:30:06;;;;;;;0.93;0.90;;;20.40;99.90;;;;;;5098432;28;20616;-70
2023/08/13 06:32:42;;;;;;;1.30;1.20;;;20.40;99.90;;;;;;5099542;28;20213;-71
2023/08/13 06:35:10;;;;;;;1.40;1.27;;;20.40;99.90;;;;;;5099515;28;20203;-70
2023/08/13 06:37:38;;;;;;;1.00;0.90;;;20.40;99.90;;;;;;5080997;28;20571;-70
2023/08/13 06:40:26;;;;;;;1.70;1.13;;;20.60;99.90;;;;;;5080319;28;20290;-70
2023/08/13 06:42:54;;;;;;;1.20;1.10;;;20.70;99.90;;;;;;5082379;28;20206;-70
2023/08/13 06:45:26;;;;;;;1.00;0.90;;;20.70;99.90;;;;;;5081017;28;20217;-70
2023/08/13 06:47:54;;;;;;;1.10;1.00;;;20.80;99.90;;;;;;5079052;28;20199;-70
2023/08/13 06:50:22;;;;;;;1.08;0.70;;;20.80;99.90;;;;;;5079601;28;20214;-70
2023/08/13 06:52:50;;;;;;;1.00;0.98;;;20.90;99.90;;;;;;5082265;28;20210;-69
2023/08/13 06:55:18;;;;;;;0.80;0.80;;;21.00;99.90;;;;;;5081691;28;20612;-70
2023/08/13 06:57:47;;;;;;;1.10;0.90;;;21.10;99.90;;;;;;5078837;28;20280;-70
2023/08/13 07:00:16;;;;;;;1.45;1.20;;;21.20;99.90;;;;;;5078904;28;20210;-70
2023/08/13 07:02:45;;;;;;;0.85;0.80;;;21.20;99.90;;;;;;5071207;28;20203;-70
2023/08/13 07:05:15;;;;;;;2.58;0.85;;;21.20;99.90;;;;;;5080880;28;20210;-71
2023/08/13 07:07:43;;;;;;;0.80;0.80;;;21.20;99.90;;;;;;5082654;28;20290;-70
2023/08/13 07:10:11;;;;;;;1.35;1.10;;;21.30;99.90;;;;;;5082665;28;20670;-70
2023/08/13 07:12:39;;;;;;;1.42;1.33;;;21.30;99.90;;;;;;5085725;28;20198;-70
2023/08/13 07:15:07;;;;;;;0.85;0.85;;;21.40;99.90;;;;;;5078507;28;20203;-70
2023/08/13 07:17:38;;;;;;;1.25;1.02;;;21.40;99.90;;;;;;5073858;28;20304;-70
2023/08/13 07:20:09;;;;;;;0.82;0.82;;;21.40;99.90;;;;;;5082311;28;20339;-70
2023/08/13 07:22:38;;;;;;;1.10;0.90;;;21.50;99.90;;;;;;5085292;28;20203;-70
2023/08/13 07:25:06;;;;;;;1.10;0.90;;;21.50;99.90;;;;;;5085616;28;20203;-70
2023/08/13 07:27:34;;;;;;;0.90;0.90;;;21.60;99.90;;;;;;5083221;28;20242;-70
2023/08/13 07:30:02;;;;;;;1.05;0.98;;;21.60;99.90;;;;;;5082126;28;20207;-70
2023/08/13 07:32:30;;;;;;;1.13;1.02;;;21.60;99.90;;;;;;5083808;28;20286;-70
2023/08/13 07:34:58;;;;;;;0.65;0.60;;;21.70;99.90;;;;;;5085628;28;20242;-70
2023/08/13 07:37:28;;;;;;;0.95;0.90;;;21.70;99.90;;;;;;5084208;28;20288;-70
2023/08/13 07:39:56;;;;;;;1.05;0.90;;;21.70;99.90;;;;;;5081986;28;20207;-71
2023/08/13 07:42:24;;;;;;;0.70;0.70;;;21.70;99.90;;;;;;5082740;28;20208;-70
2023/08/13 07:44:53;;;;;;;1.30;1.20;;;21.80;99.90;;;;;;5080203;28;20207;-69
2023/08/13 07:47:21;;;;;;;1.00;0.88;;;21.80;99.90;;;;;;5073276;28;20228;-70
2023/08/13 07:49:49;;;;;;;0.95;0.80;;;21.90;99.90;;;;;;5081942;28;20214;-70
2023/08/13 07:52:17;;;;;;;0.80;0.80;;;21.90;99.90;;;;;;5081964;28;20203;-70
2023/08/13 07:54:46;;;;;;;0.82;0.82;;;22.00;99.90;;;;;;5073643;28;20208;-71
2023/08/13 07:57:14;;;;;;;1.10;1.00;;;22.20;99.90;;;;;;5081487;28;20227;-70
2023/08/13 07:59:42;;;;;;;0.90;0.90;;;22.30;99.90;;;;;;5084518;28;20649;-70
2023/08/13 08:02:10;;;;;;;1.13;0.85;;;22.40;99.90;;;;;;5085436;28;20207;-70
2023/08/13 08:04:38;;;;;;;1.10;1.00;;;22.50;99.90;;;;;;5082322;28;20212;-70
2023/08/13 08:07:06;;;;;;;0.82;0.82;;;22.50;99.90;;;;;;5081646;28;20288;-70
2023/08/13 08:09:34;;;;;;;0.98;0.98;;;22.70;99.90;;;;;;5083202;28;20204;-70
2023/08/13 08:12:03;;;;;;;1.25;1.15;;;22.70;99.90;;;;;;5084981;28;20207;-71
2023/08/13 08:14:31;;;;;;;0.80;0.80;;;22.80;99.90;;;;;;5081475;28;20611;-70
2023/08/13 08:17:04;;;;;;;1.05;0.95;;;22.90;99.90;;;;;;5072387;28;20234;-70
2023/08/13 08:19:33;;;;;;;1.27;1.17;;;23.00;99.90;;;;;;5081347;28;20618;-70
2023/08/13 08:22:01;;;;;;;4.05;2.03;;;23.20;99.90;;;;;;5081604;28;20257;-71
2023/08/13 08:24:29;;;;;;;1.05;0.95;;;23.40;99.90;;;;;;5081723;28;20215;-70
2023/08/13 08:26:57;;;;;;;1.30;1.20;;;23.60;99.90;;;;;;5084431;28;20232;-71
2023/08/13 08:29:27;;;;;;;1.05;0.95;;;23.70;99.90;;;;;;5084084;28;20214;-71
2023/08/13 08:31:55;;;;;;;0.80;0.80;;;23.90;99.90;;;;;;5081372;28;20223;-72
2023/08/13 08:34:23;;;;;;;1.65;1.55;;;23.90;99.90;;;;;;5081053;28;20254;-67
2023/08/13 08:36:51;;;;;;;1.15;1.05;;;23.80;99.90;;;;;;5072811;28;20703;-71
2023/08/13 08:39:19;;;;;;;1.20;1.00;;;23.70;99.90;;;;;;5080752;28;20660;-69
2023/08/13 08:41:48;;;;;;;1.17;1.08;;;23.70;99.90;;;;;;5084173;28;20506;-69
2023/08/13 08:44:20;;;;;;;1.33;1.23;;;23.70;99.90;;;;;;5083156;28;20212;-68
2023/08/13 08:46:50;;;;;;;1.40;1.30;;;23.70;99.90;;;;;;5072061;28;20228;-70
2023/08/13 08:49:21;;;;;;;1.95;1.50;;;23.80;99.90;;;;;;5079727;28;20226;-70
2023/08/13 08:51:50;;;;;;;1.10;0.90;;;23.90;99.90;;;;;;5080757;28;20219;-70
2023/08/13 08:54:19;;;;;;;1.17;0.85;;;24.10;99.90;;;;;;5080701;28;20670;-69
2023/08/13 08:56:47;;;;;;;0.93;0.80;;;24.20;99.90;;;;;;5083206;28;20757;-70
2023/08/13 08:59:15;;;;;;;0.90;0.80;;;24.30;99.90;;;;;;5083801;28;20203;-70
2023/08/13 09:01:43;;;;;;;2.35;0.70;;;24.40;99.90;;;;;;5081529;28;20286;-70
2023/08/13 09:04:12;;;;;;;0.73;0.65;;;24.40;99.90;;;;;;5080196;28;20801;-70
2023/08/13 09:06:54;;;;;;;0.63;0.60;;;24.40;99.90;;;;;;5082192;28;20243;-69
2023/08/13 09:09:22;;;;;;;1.55;0.90;;;24.40;99.90;;;;;;5083631;28;20211;-70
2023/08/13 09:11:51;;;;;;;0.80;0.80;;;24.40;99.90;;;;;;5080149;28;20213;-70
2023/08/13 09:14:20;;;;;;;1.33;0.70;;;24.50;99.90;;;;;;5080709;28;20197;-70
2023/08/13 09:16:49;;;;;;;0.80;0.60;;;24.60;99.90;;;;;;5071473;28;20240;-70
2023/08/13 09:19:19;;;;;;;0.70;0.65;;;24.70;99.90;;;;;;5078643;28;20208;-70
2023/08/13 09:21:51;;;;;;;1.52;1.15;;;24.60;99.90;;;;;;5080729;28;20207;-70
2023/08/13 09:24:19;;;;;;;0.98;0.82;;;24.70;99.90;;;;;;5080221;28;20720;-71
2023/08/13 09:26:48;;;;;;;0.70;0.70;;;24.80;99.90;;;;;;5082216;28;20252;-70
2023/08/13 09:29:16;;;;;;;0.88;0.88;;;24.90;99.90;;;;;;5082314;28;20208;-70
2023/08/13 09:31:44;;;;;;;1.27;0.95;;;24.80;99.90;;;;;;5080922;28;20285;-70
2023/08/13 09:34:12;;;;;;;0.88;0.73;;;24.80;99.90;;;;;;5079973;28;20261;-71
2023/08/13 09:36:41;;;;;;;0.90;0.90;;;24.90;99.90;;;;;;5081343;28;20248;-72
2023/08/13 09:39:10;;;;;;;0.90;0.90;;;25.10;99.90;;;;;;5083042;28;20224;-70
2023/08/13 09:41:38;;;;;;;0.75;0.75;;;25.20;99.90;;;;;;5081447;28;20219;-70
2023/08/13 09:44:10;;;;;;;1.05;0.90;;;25.40;99.90;;;;;;5079875;28;20209;-70
2023/08/13 09:46:41;;;;;;;0.70;0.70;;;25.30;99.90;;;;;;5078337;28;20233;-70
2023/08/13 09:49:11;;;;;;;1.38;1.00;;;25.50;99.90;;;;;;5083044;28;20246;-71
2023/08/13 09:51:43;;;;;;;1.10;1.00;;;25.60;99.90;;;;;;5081532;28;20687;-68
2023/08/13 09:54:15;;;;;;;0.80;0.70;;;25.60;99.90;;;;;;5079479;28;20201;-71
2023/08/13 09:56:48;;;;;;;1.25;0.60;;;25.60;99.90;;;;;;5081086;28;20714;-70
2023/08/13 09:59:16;;;;;;;0.80;0.80;;;25.50;99.90;;;;;;5082800;28;20617;-70
2023/08/13 10:01:45;;;;;;;1.00;0.80;;;25.60;99.90;;;;;;5081029;28;20677;-70
2023/08/13 10:04:13;;;;;;;1.08;0.85;;;25.70;99.90;;;;;;5079427;28;20209;-70
2023/08/13 10:06:43;;;;;;;1.10;1.00;;;25.70;99.90;;;;;;5080442;28;20225;-70
2023/08/13 10:09:11;;;;;;;1.02;0.88;;;25.70;99.90;;;;;;5082599;28;20199;-70
2023/08/13 10:11:39;;;;;;;0.70;0.70;;;25.70;99.90;;;;;;5081454;28;20209;-70
2023/08/13 10:14:07;;;;;;;2.00;0.95;;;25.60;99.90;;;;;;5079639;28;20576;-70
2023/08/13 10:16:35;;;;;;;0.90;0.70;;;25.50;99.90;;;;;;5075981;28;20274;-70
2023/08/13 10:19:03;;;;;;;1.45;0.82;;;25.50;99.90;;;;;;5078914;28;20684;-71
2023/08/13 10:21:34;;;;;;;1.50;1.00;;;25.60;99.90;;;;;;5079044;28;20573;-71
2023/08/13 10:24:05;;;;;;;0.73;0.70;;;25.30;99.90;;;;;;5071764;28;20633;-70
2023/08/13 10:26:33;;;;;;;0.70;0.70;;;25.30;99.90;;;;;;5078859;28;20242;-70
2023/08/13 10:29:14;;;;;;;0.80;0.70;;;25.30;99.90;;;;;;5082451;28;20255;-70
2023/08/13 10:31:49;;;;;;;1.20;0.80;;;25.50;99.90;;;;;;5080865;28;20263;-70
2023/08/13 10:34:18;;;;;;;1.10;0.70;;;25.50;99.90;;;;;;5079168;28;20250;-70
2023/08/13 10:36:51;;;;;;;1.33;0.68;;;25.50;99.90;;;;;;5080587;28;20224;-71
2023/08/13 10:39:40;;;;;;;1.10;1.00;;;25.50;99.90;;;;;;5082843;28;20216;-70
2023/08/13 10:42:46;;;;;;;0.85;0.70;;;25.70;99.90;;;;;;5075845;28;20215;-70
2023/08/13 10:45:16;;;;;;;0.80;0.80;;;25.80;99.90;;;;;;5071736;28;20212;-72
2023/08/13 10:47:49;;;;;;;1.65;0.90;;;25.80;99.90;;;;;;5073094;28;20898;-68
2023/08/13 10:50:31;;;;;;;0.90;0.60;;;25.90;99.90;;;;;;5074539;28;20215;-70
2023/08/13 10:53:10;;;;;;;0.80;0.60;;;25.80;99.90;;;;;;5074425;28;20545;-70
2023/08/13 10:55:42;;;;;;;0.80;0.70;;;25.80;99.90;;;;;;5074162;28;20268;-69
2023/08/13 10:58:23;;;;;;;0.90;0.80;;;25.90;99.90;;;;;;5074378;28;20225;-70
2023/08/13 11:00:51;;;;;;;1.00;0.60;;;25.90;99.90;;;;;;5074346;28;20213;-71
2023/08/13 11:03:20;;;;;;;0.80;0.80;;;25.90;99.90;;;;;;5074326;28;20209;-72
2023/08/13 11:05:50;;;;;;;0.70;0.60;;;25.80;99.90;;;;;;5073729;28;20229;-71
2023/08/13 11:08:19;;;;;;;1.00;0.90;;;25.80;99.90;;;;;;5074066;28;20675;-70
2023/08/13 11:11:07;;;;;;;0.95;0.75;;;25.80;99.90;;;;;;5066321;28;20636;-70
2023/08/13 11:13:35;;;;;;;0.80;0.80;;;25.80;99.90;;;;;;5082460;28;20216;-70
2023/08/13 11:16:03;;;;;;;1.25;0.80;;;25.50;99.90;;;;;;5069431;28;20217;-70
2023/08/13 11:18:31;;;;;;;1.10;0.82;;;25.40;99.90;;;;;;5085676;28;20774;-70
2023/08/13 11:20:59;;;;;;;1.00;0.88;;;25.30;99.90;;;;;;5082796;28;20638;-70
2023/08/13 11:23:27;;;;;;;1.30;1.20;;;25.30;99.90;;;;;;5082753;28;20783;-70
2023/08/13 11:25:55;;;;;;;0.77;0.73;;;25.10;99.90;;;;;;5084179;28;21603;-70
2023/08/13 11:28:26;;;;;;;0.80;0.80;;;25.10;99.90;;;;;;5085722;28;20223;-69
2023/08/13 11:30:56;;;;;;;1.10;0.90;;;25.10;99.90;;;;;;5083498;28;20948;-70
2023/08/13 11:33:25;;;;;;;1.40;1.30;;;25.00;99.90;;;;;;5082321;28;20218;-70
2023/08/13 11:35:54;;;;;;;0.80;0.60;;;25.10;99.90;;;;;;5083995;28;20719;-70
2023/08/13 11:38:22;;;;;;;1.00;0.80;;;25.20;99.90;;;;;;5085348;28;20200;-70
2023/08/13 11:40:50;;;;;;;0.70;0.70;;;25.30;99.90;;;;;;5083818;28;20212;-69
2023/08/13 11:43:19;;;;;;;2.85;0.90;;;25.20;99.90;;;;;;5081878;28;20212;-70
2023/08/13 11:45:50;;;;;;;0.80;0.80;;;25.30;99.90;;;;;;5081650;28;20203;-70
2023/08/13 11:48:20;;;;;;;1.52;0.70;;;25.30;99.90;;;;;;5073417;28;20664;-70
2023/08/13 11:50:50;;;;;;;1.13;0.90;;;25.40;99.90;;;;;;5081101;28;20211;-70
2023/08/13 11:53:28;;;;;;;1.10;0.88;;;25.40;99.90;;;;;;5081896;28;20262;-70
2023/08/13 11:55:56;;;;;;;0.80;0.73;;;25.50;99.90;;;;;;5083667;28;20223;-70
2023/08/13 11:58:27;;;;;;;0.80;0.80;;;25.60;99.90;;;;;;5084911;28;20209;-70
2023/08/13 12:00:57;;;;;;;0.80;0.77;;;25.70;99.90;;;;;;5083200;28;20209;-70
2023/08/13 12:03:25;;;;;;;0.80;0.70;;;25.70;99.90;;;;;;5081729;28;20316;-71
2023/08/13 12:05:53;;;;;;;2.40;0.68;;;25.90;99.90;;;;;;5082801;28;20254;-71
2023/08/13 12:08:26;;;;;;;1.67;0.57;;;26.10;99.90;;;;;;5084664;28;20613;-71
2023/08/13 12:10:54;;;;;;;0.88;0.60;;;26.20;99.90;;;;;;5083369;28;20206;-70
2023/08/13 12:13:22;;;;;;;1.05;0.70;;;26.40;99.90;;;;;;5081543;28;20200;-71
2023/08/13 12:15:50;;;;;;;1.02;0.88;;;26.70;99.90;;;;;;5081117;28;20241;-71
2023/08/13 12:18:20;;;;;;;0.70;0.60;;;26.90;99.90;;;;;;5077516;28;20224;-71
2023/08/13 12:20:47;;;;;;;0.80;0.60;;;27.10;99.90;;;;;;5083968;28;20229;-71
2023/08/13 12:23:15;;;;;;;1.33;0.80;;;27.10;99.90;;;;;;5081228;28;20662;-71
2023/08/13 12:25:43;;;;;;;1.13;0.73;;;27.20;99.90;;;;;;5080980;28;20203;-71
2023/08/13 12:28:15;;;;;;;1.35;0.80;;;27.40;99.90;;;;;;5074110;28;20199;-71
2023/08/13 12:30:43;;;;;;;0.70;0.60;;;27.40;99.90;;;;;;5081257;28;20280;-71
2023/08/13 12:33:11;;;;;;;0.70;0.60;;;27.40;99.90;;;;;;5073009;28;20199;-71
2023/08/13 12:35:40;;;;;;;1.10;0.90;;;27.50;99.90;;;;;;5081107;28;20210;-71
2023/08/13 12:38:08;;;;;;;0.85;0.85;;;27.60;99.90;;;;;;5083821;28;20200;-71
2023/08/13 12:40:36;;;;;;;1.15;0.80;;;27.70;99.90;;;;;;5084406;28;20656;-70
2023/08/13 12:43:04;;;;;;;0.90;0.70;;;27.70;99.90;;;;;;5081695;28;20213;-71
2023/08/13 12:45:32;;;;;;;1.13;0.70;;;27.70;99.90;;;;;;5080691;28;20210;-71
2023/08/13 12:48:00;;;;;;;0.90;0.80;;;27.50;99.90;;;;;;5080277;28;20216;-70
2023/08/13 12:50:28;;;;;;;1.10;0.70;;;27.40;99.90;;;;;;5078218;28;20312;-71
2023/08/13 12:53:00;;;;;;;0.70;0.65;;;27.70;99.90;;;;;;5082693;28;20217;-70
2023/08/13 12:55:28;;;;;;;0.70;0.60;;;28.00;99.90;;;;;;5080791;28;20684;-71
2023/08/13 12:57:56;;;;;;;0.80;0.60;;;28.30;99.90;;;;;;5081753;28;20304;-70